Time;durP1;ratioP1;P1;durP2;ratioP2;P2;SDS_P1;SDS_P2;PMS_P1;PMS_P2;Temp;Humidity;BMP_temperature;BMP_pressure;BME280_temperature;BME280_humidity;BME280_pressure;Samples;Min_cycle;Max_cycle;Signal;HPM_P1;HPM_P2
2022/03/03 00:02:00;;;;;;;;;;;1.60;79.20;;;;;;5034362;28;19955;-73
2022/03/03 00:04:26;;;;;;;;;;;1.60;78.50;;;;;;5016455;28;19909;-73
2022/03/03 00:06:51;;;;;;;;;;;1.70;77.80;;;;;;5034029;28;20381;-73
2022/03/03 00:09:17;;;;;;;;;;;1.50;77.80;;;;;;5034002;28;19909;-73
2022/03/03 00:11:42;;;;;;;;;;;1.10;79.60;;;;;;5034024;28;19909;-73
2022/03/03 00:14:08;;;;;;;;;;;1.00;80.30;;;;;;5033818;28;19917;-73
2022/03/03 00:16:34;;;;;;;;;;;0.90;81.80;;;;;;5016298;28;19909;-73
2022/03/03 00:18:59;;;;;;;;;;;0.80;82.50;;;;;;4999827;28;19913;-73
2022/03/03 00:21:25;;;;;;;;;;;0.90;82.20;;;;;;5015114;28;19913;-73
2022/03/03 00:23:50;;;;;;;;;;;1.00;82.10;;;;;;5033720;28;20020;-73
2022/03/03 00:26:16;;;;;;;;;;;1.20;82.40;;;;;;5016124;28;19913;-73
2022/03/03 00:28:42;;;;;;;;;;;1.10;81.40;;;;;;5016080;28;19909;-73
2022/03/03 00:31:08;;;;;;;;;;;1.10;81.70;;;;;;5016244;28;19996;-73
2022/03/03 00:33:33;;;;;;;;;;;1.10;81.70;;;;;;5033425;28;19925;-73
2022/03/03 00:35:59;;;;;;;;;;;1.00;81.90;;;;;;5033565;28;20000;-73
2022/03/03 00:38:25;;;;;;;;;;;0.80;81.60;;;;;;5033464;28;19919;-73
2022/03/03 00:40:51;;;;;;;;;;;0.80;82.30;;;;;;5033427;28;19920;-73
2022/03/03 00:43:16;;;;;;;;;;;0.70;82.30;;;;;;5044805;23;19929;-71
2022/03/03 00:45:42;;;;;;;;;;;0.80;82.20;;;;;;5033220;28;19909;-71
2022/03/03 00:48:08;;;;;;;;;;;0.80;81.60;;;;;;5033483;28;20000;-71
2022/03/03 00:50:34;;;;;;;;;;;0.90;81.00;;;;;;5033423;28;19917;-71
2022/03/03 00:52:59;;;;;;;;;;;0.90;79.90;;;;;;5033412;28;20406;-71
2022/03/03 00:55:25;;;;;;;;;;;0.90;80.20;;;;;;5033120;28;19917;-71
2022/03/03 00:57:51;;;;;;;;;;;1.00;79.80;;;;;;5033288;28;20016;-71
2022/03/03 01:00:18;;;;;;;;;;;1.20;78.80;;;;;;5033043;28;19910;-71
2022/03/03 01:02:48;;;;;;;;;;;1.20;77.50;;;;;;5033173;28;19909;-71
2022/03/03 01:05:13;;;;;;;;;;;1.30;76.60;;;;;;5033294;28;19952;-71
2022/03/03 01:07:39;;;;;;;;;;;1.40;76.40;;;;;;5033006;28;20379;-71
2022/03/03 01:10:05;;;;;;;;;;;1.40;76.20;;;;;;5032792;28;19967;-71
2022/03/03 01:12:31;;;;;;;;;;;1.20;76.70;;;;;;5033040;28;19913;-71
2022/03/03 01:14:57;;;;;;;;;;;1.20;76.30;;;;;;5032988;28;19920;-71
2022/03/03 01:17:22;;;;;;;;;;;1.10;76.80;;;;;;5032868;28;19909;-71
2022/03/03 01:19:48;;;;;;;;;;;1.10;75.80;;;;;;5031684;28;19909;-72
2022/03/03 01:22:16;;;;;;;;;;;1.10;76.50;;;;;;5032967;28;20352;-71
2022/03/03 01:24:42;;;;;;;;;;;1.00;76.20;;;;;;5032783;28;19913;-72
2022/03/03 01:27:08;;;;;;;;;;;0.80;77.50;;;;;;5031424;28;20292;-72
2022/03/03 01:29:33;;;;;;;;;;;0.80;78.30;;;;;;5031691;28;19916;-72
2022/03/03 01:31:59;;;;;;;;;;;0.80;77.60;;;;;;5032813;28;20383;-72
2022/03/03 01:34:25;;;;;;;;;;;0.50;78.40;;;;;;5032569;28;20350;-72
2022/03/03 01:36:50;;;;;;;;;;;0.30;79.50;;;;;;5032572;28;19918;-72
2022/03/03 01:39:16;;;;;;;;;;;0.30;80.10;;;;;;5032743;28;19910;-72
2022/03/03 01:41:42;;;;;;;;;;;0.40;80.20;;;;;;5032446;28;19917;-72
2022/03/03 01:44:08;;;;;;;;;;;0.60;79.70;;;;;;5032601;28;20103;-72
2022/03/03 01:46:34;;;;;;;;;;;0.60;79.10;;;;;;5032382;28;20373;-72
2022/03/03 01:49:00;;;;;;;;;;;0.70;79.60;;;;;;5032652;28;19916;-72
2022/03/03 01:51:26;;;;;;;;;;;0.70;79.80;;;;;;5032568;28;19909;-72
2022/03/03 01:53:51;;;;;;;;;;;0.70;78.80;;;;;;5032396;28;19913;-72
2022/03/03 01:56:17;;;;;;;;;;;0.70;78.90;;;;;;5032348;28;20373;-72
2022/03/03 01:58:44;;;;;;;;;;;0.70;78.90;;;;;;5032409;28;19909;-72
2022/03/03 02:01:10;;;;;;;;;;;0.80;78.80;;;;;;5032475;28;19956;-72
2022/03/03 02:03:35;;;;;;;;;;;1.00;78.00;;;;;;5032347;28;19916;-72
2022/03/03 02:06:01;;;;;;;;;;;1.00;77.50;;;;;;5031046;28;19913;-72
2022/03/03 02:08:27;;;;;;;;;;;1.00;77.10;;;;;;5032430;28;19932;-72
2022/03/03 02:10:53;;;;;;;;;;;1.00;77.70;;;;;;5032000;28;20420;-72
2022/03/03 02:13:19;;;;;;;;;;;1.10;76.90;;;;;;5031004;28;19909;-72
2022/03/03 02:15:51;;;;;;;;;;;1.00;76.30;;;;;;5030833;28;19913;-72
2022/03/03 02:18:17;;;;;;;;;;;0.90;77.00;;;;;;5032270;28;19924;-73
2022/03/03 02:20:43;;;;;;;;;;;0.80;76.80;;;;;;5032287;28;19967;-72
2022/03/03 02:23:08;;;;;;;;;;;0.80;77.00;;;;;;5032203;28;19909;-72
2022/03/03 02:25:34;;;;;;;;;;;0.70;76.40;;;;;;5030706;28;20388;-72
2022/03/03 02:28:00;;;;;;;;;;;0.60;77.80;;;;;;5032320;28;19942;-72
2022/03/03 02:30:26;;;;;;;;;;;0.50;78.00;;;;;;5032247;28;19909;-72
2022/03/03 02:32:52;;;;;;;;;;;0.50;78.70;;;;;;5032140;28;20377;-72
2022/03/03 02:35:18;;;;;;;;;;;0.60;78.40;;;;;;5032045;28;19963;-72
2022/03/03 02:37:44;;;;;;;;;;;0.60;78.40;;;;;;5014290;28;19909;-72
2022/03/03 02:40:11;;;;;;;;;;;0.70;78.60;;;;;;5030931;28;19909;-72
2022/03/03 02:42:37;;;;;;;;;;;0.70;79.10;;;;;;5031985;28;19967;-72
2022/03/03 02:45:03;;;;;;;;;;;0.70;78.30;;;;;;5034188;28;20364;-72
2022/03/03 02:47:29;;;;;;;;;;;0.50;78.30;;;;;;5035566;28;19956;-72
2022/03/03 02:49:55;;;;;;;;;;;0.20;78.50;;;;;;5035764;28;19913;-73
2022/03/03 02:52:20;;;;;;;;;;;-0.10;80.30;;;;;;5035776;28;19915;-73
2022/03/03 02:54:46;;;;;;;;;;;-0.10;81.10;;;;;;5035542;28;19979;-73
2022/03/03 03:00:10;;;;;;;;;;;0.00;82.10;;;;;;5012759;28;19996;-72
2022/03/03 03:02:35;;;;;;;;;;;0.20;81.50;;;;;;5034273;28;20002;-73
2022/03/03 03:05:01;;;;;;;;;;;0.20;80.00;;;;;;5034068;28;19959;-72
2022/03/03 03:07:27;;;;;;;;;;;0.10;80.00;;;;;;5035217;28;19932;-73
2022/03/03 03:09:52;;;;;;;;;;;0.00;80.00;;;;;;5034992;28;19919;-72
2022/03/03 03:12:18;;;;;;;;;;;-0.10;80.70;;;;;;5035455;28;19909;-73
2022/03/03 03:14:44;;;;;;;;;;;-0.20;80.80;;;;;;5035128;28;19920;-72
2022/03/03 03:17:10;;;;;;;;;;;-0.10;81.00;;;;;;5035018;28;20420;-73
2022/03/03 03:19:35;;;;;;;;;;;-0.10;80.40;;;;;;5035243;28;19963;-72
2022/03/03 03:22:02;;;;;;;;;;;0.00;81.60;;;;;;5035162;28;19917;-73
2022/03/03 03:24:27;;;;;;;;;;;0.10;80.80;;;;;;5035064;28;20376;-73
2022/03/03 03:26:53;;;;;;;;;;;0.10;79.60;;;;;;5034884;28;19909;-73
2022/03/03 03:29:18;;;;;;;;;;;0.10;80.30;;;;;;5033790;28;19909;-73
2022/03/03 03:31:44;;;;;;;;;;;0.10;79.60;;;;;;5034983;28;20000;-72
2022/03/03 03:34:10;;;;;;;;;;;0.10;79.40;;;;;;5034810;28;20280;-73
2022/03/03 03:36:35;;;;;;;;;;;0.20;80.20;;;;;;5034772;28;20296;-72
2022/03/03 03:39:01;;;;;;;;;;;0.30;81.00;;;;;;5034688;28;19936;-72
2022/03/03 03:41:27;;;;;;;;;;;0.30;79.70;;;;;;5034723;28;19913;-73
2022/03/03 03:43:52;;;;;;;;;;;0.30;79.60;;;;;;5034624;28;19924;-72
2022/03/03 03:46:18;;;;;;;;;;;0.10;79.80;;;;;;5033274;28;20442;-72
2022/03/03 03:48:44;;;;;;;;;;;0.10;79.60;;;;;;5034790;28;19968;-72
2022/03/03 03:51:09;;;;;;;;;;;-0.20;80.70;;;;;;5033447;28;19916;-72
2022/03/03 03:53:35;;;;;;;;;;;-0.30;81.10;;;;;;5034446;28;19917;-73
2022/03/03 03:56:00;;;;;;;;;;;-0.30;81.60;;;;;;5032905;28;19917;-73
2022/03/03 03:58:26;;;;;;;;;;;-0.20;82.10;;;;;;5034578;28;19909;-73
2022/03/03 04:00:52;;;;;;;;;;;-0.30;81.80;;;;;;5034382;28;19917;-72
2022/03/03 04:03:17;;;;;;;;;;;-0.30;81.00;;;;;;5032931;28;19909;-72
2022/03/03 04:05:43;;;;;;;;;;;-0.30;81.60;;;;;;5034186;28;19910;-72
2022/03/03 04:08:09;;;;;;;;;;;-0.50;81.10;;;;;;5033005;28;19909;-72
2022/03/03 04:10:34;;;;;;;;;;;-0.50;81.70;;;;;;5033223;28;19909;-72
2022/03/03 04:13:00;;;;;;;;;;;-0.40;82.40;;;;;;5034174;28;20291;-72
2022/03/03 04:15:25;;;;;;;;;;;-0.40;82.00;;;;;;5033927;28;19913;-72
2022/03/03 04:17:51;;;;;;;;;;;-0.20;81.50;;;;;;5034036;28;19913;-72
2022/03/03 04:20:18;;;;;;;;;;;-0.10;80.80;;;;;;5034241;28;19916;-72
2022/03/03 04:22:44;;;;;;;;;;;0.00;80.80;;;;;;5034062;28;19932;-72
2022/03/03 04:25:10;;;;;;;;;;;-0.20;80.00;;;;;;5033865;28;19956;-72
2022/03/03 04:27:37;;;;;;;;;;;-0.40;80.00;;;;;;5033779;28;19963;-72
2022/03/03 04:30:04;;;;;;;;;;;-0.40;81.10;;;;;;5032605;28;19909;-72
2022/03/03 04:32:29;;;;;;;;;;;-0.20;81.00;;;;;;5033990;28;19916;-72
2022/03/03 04:34:55;;;;;;;;;;;-0.10;80.40;;;;;;5032280;28;19913;-72
2022/03/03 04:37:21;;;;;;;;;;;-0.10;79.90;;;;;;5033517;28;19913;-72
2022/03/03 04:39:46;;;;;;;;;;;0.00;79.70;;;;;;5032435;28;19952;-72
2022/03/03 04:42:12;;;;;;;;;;;0.20;79.20;;;;;;5033906;28;19913;-72
2022/03/03 04:44:38;;;;;;;;;;;0.20;77.80;;;;;;5032407;28;19963;-72
2022/03/03 04:47:03;;;;;;;;;;;0.00;78.70;;;;;;5032094;28;19924;-72
2022/03/03 04:49:29;;;;;;;;;;;-0.20;79.10;;;;;;5033538;28;20005;-72
2022/03/03 04:51:55;;;;;;;;;;;-0.20;79.20;;;;;;5033372;28;19985;-72
2022/03/03 04:54:21;;;;;;;;;;;-0.10;78.90;;;;;;5032076;28;19921;-72
2022/03/03 04:56:46;;;;;;;;;;;0.10;77.50;;;;;;5033183;28;20004;-72
2022/03/03 04:59:12;;;;;;;;;;;0.20;76.20;;;;;;5032140;28;20012;-72
2022/03/03 05:01:38;;;;;;;;;;;0.30;75.30;;;;;;5033260;28;19913;-72
2022/03/03 05:04:03;;;;;;;;;;;0.30;75.50;;;;;;5031894;28;19916;-72
2022/03/03 05:06:29;;;;;;;;;;;0.20;75.50;;;;;;5032830;28;19941;-72
2022/03/03 05:08:55;;;;;;;;;;;0.30;76.20;;;;;;5032939;28;19917;-72
2022/03/03 05:11:20;;;;;;;;;;;0.50;75.20;;;;;;5033159;28;19916;-72
2022/03/03 05:13:47;;;;;;;;;;;0.50;75.50;;;;;;5031794;28;19916;-72
2022/03/03 05:16:13;;;;;;;;;;;0.30;74.80;;;;;;5032796;28;19964;-72
2022/03/03 05:18:38;;;;;;;;;;;0.20;75.60;;;;;;5032989;28;19941;-72
2022/03/03 05:21:04;;;;;;;;;;;0.00;75.60;;;;;;5031620;28;19913;-72
2022/03/03 05:23:30;;;;;;;;;;;-0.20;77.00;;;;;;5032864;28;19910;-72
2022/03/03 05:25:56;;;;;;;;;;;-0.10;77.90;;;;;;5031439;28;20360;-72
2022/03/03 05:28:21;;;;;;;;;;;-0.10;77.70;;;;;;5031553;28;19920;-72
2022/03/03 05:30:47;;;;;;;;;;;-0.10;77.90;;;;;;5032781;28;19932;-72
2022/03/03 05:33:13;;;;;;;;;;;0.00;77.80;;;;;;5032704;28;19991;-72
2022/03/03 05:35:39;;;;;;;;;;;-0.10;77.90;;;;;;5032425;28;19913;-71
2022/03/03 05:38:05;;;;;;;;;;;0.00;77.60;;;;;;5032783;28;19909;-72
2022/03/03 05:40:31;;;;;;;;;;;0.00;77.50;;;;;;5032728;28;20425;-72
2022/03/03 05:42:56;;;;;;;;;;;-0.10;77.90;;;;;;5032683;28;19917;-72
2022/03/03 05:45:22;;;;;;;;;;;-0.30;78.70;;;;;;5032521;28;19920;-73
2022/03/03 05:47:48;;;;;;;;;;;-0.40;78.90;;;;;;5031210;28;19953;-73
2022/03/03 05:50:15;;;;;;;;;;;-0.40;79.30;;;;;;5032470;28;19917;-73
2022/03/03 05:52:41;;;;;;;;;;;-0.40;79.50;;;;;;5032529;28;19909;-73
2022/03/03 05:55:06;;;;;;;;;;;-0.30;79.50;;;;;;5032374;28;20339;-73
2022/03/03 05:57:34;;;;;;;;;;;-0.20;79.60;;;;;;5032395;28;19909;-73
2022/03/03 06:00:08;;;;;;;;;;;-0.20;79.30;;;;;;5031169;28;20000;-73
2022/03/03 06:02:34;;;;;;;;;;;-0.40;79.20;;;;;;5032409;28;19909;-72
2022/03/03 06:05:02;;;;;;;;;;;-0.40;79.70;;;;;;5032169;28;19964;-72
2022/03/03 06:07:28;;;;;;;;;;;-0.60;80.70;;;;;;5032056;28;19910;-72
2022/03/03 06:09:56;;;;;;;;;;;-0.70;80.10;;;;;;5032211;28;19909;-72
2022/03/03 06:12:21;;;;;;;;;;;-0.60;80.50;;;;;;5032413;28;19952;-74
2022/03/03 06:14:50;;;;;;;;;;;-0.50;80.30;;;;;;5014314;28;20003;-73
2022/03/03 06:17:16;;;;;;;;;;;-0.60;80.90;;;;;;5028604;28;20324;-73
2022/03/03 06:19:42;;;;;;;;;;;-0.50;81.70;;;;;;5031106;28;20263;-73
2022/03/03 06:22:09;;;;;;;;;;;-0.50;81.70;;;;;;5033110;28;20007;-73
2022/03/03 06:24:35;;;;;;;;;;;-0.30;81.00;;;;;;5046672;28;19916;-73
2022/03/03 06:27:01;;;;;;;;;;;-0.30;79.70;;;;;;5035822;28;19932;-73
2022/03/03 06:29:26;;;;;;;;;;;-0.40;80.40;;;;;;5035738;28;20394;-73
2022/03/03 06:31:53;;;;;;;;;;;-0.50;80.90;;;;;;5035067;28;19939;-73
2022/03/03 06:34:20;;;;;;;;;;;-0.40;81.10;;;;;;5035411;28;19992;-73
2022/03/03 06:36:46;;;;;;;;;;;-0.30;79.90;;;;;;5034970;28;19921;-73
2022/03/03 06:39:12;;;;;;;;;;;-0.10;79.80;;;;;;5049631;28;20388;-73
2022/03/03 06:41:37;;;;;;;;;;;-0.10;80.10;;;;;;5069188;28;19940;-73
2022/03/03 06:44:03;;;;;;;;;;;0.00;79.80;;;;;;5035119;28;19921;-73
2022/03/03 06:46:29;;;;;;;;;;;0.00;79.70;;;;;;5034425;28;19914;-73
2022/03/03 06:48:55;;;;;;;;;;;0.10;80.10;;;;;;5036715;28;19915;-73
2022/03/03 06:51:22;;;;;;;;;;;0.30;79.10;;;;;;5035264;28;19909;-74
2022/03/03 06:53:50;;;;;;;;;;;0.50;77.40;;;;;;5034792;28;19909;-73
2022/03/03 06:56:17;;;;;;;;;;;0.70;76.70;;;;;;5035040;28;20014;-73
2022/03/03 06:58:43;;;;;;;;;;;0.90;75.80;;;;;;5034522;28;19920;-73
2022/03/03 07:01:12;;;;;;;;;;;1.00;75.50;;;;;;5043689;28;19916;-74
2022/03/03 07:03:39;;;;;;;;;;;1.20;75.70;;;;;;5046473;28;19916;-73
2022/03/03 07:06:05;;;;;;;;;;;1.20;75.50;;;;;;5053157;28;19917;-73
2022/03/03 07:08:31;;;;;;;;;;;1.10;76.70;;;;;;5038988;28;19992;-74
2022/03/03 07:10:57;;;;;;;;;;;1.20;77.80;;;;;;5033288;28;19993;-73
2022/03/03 07:13:23;;;;;;;;;;;1.10;78.80;;;;;;5033626;28;19960;-73
2022/03/03 07:15:51;;;;;;;;;;;1.30;79.20;;;;;;5034692;28;19935;-74
2022/03/03 07:18:18;;;;;;;;;;;1.30;80.30;;;;;;5042594;28;19909;-71
2022/03/03 07:20:47;;;;;;;;;;;1.40;80.90;;;;;;5034837;28;19971;-74
2022/03/03 07:23:17;;;;;;;;;;;1.60;80.40;;;;;;5034168;28;19932;-73
2022/03/03 07:25:49;;;;;;;;;;;1.70;81.00;;;;;;5034697;28;19951;-73
2022/03/03 07:28:17;;;;;;;;;;;1.90;81.30;;;;;;5042916;28;19909;-73
2022/03/03 07:30:43;;;;;;;;;;;2.00;80.40;;;;;;5034137;28;19909;-73
2022/03/03 07:33:11;;;;;;;;;;;2.10;79.60;;;;;;5034157;28;19909;-73
2022/03/03 07:35:38;;;;;;;;;;;2.20;79.30;;;;;;5052888;28;20020;-73
2022/03/03 07:38:09;;;;;;;;;;;2.20;78.50;;;;;;5049361;28;19913;-73
2022/03/03 07:40:35;;;;;;;;;;;2.10;77.70;;;;;;5026229;28;19916;-73
2022/03/03 07:43:01;;;;;;;;;;;2.20;75.10;;;;;;5028129;28;20171;-72
2022/03/03 07:45:29;;;;;;;;;;;2.20;72.80;;;;;;5034071;28;19920;-73
2022/03/03 07:47:55;;;;;;;;;;;2.30;72.70;;;;;;5014830;28;20048;-73
2022/03/03 07:50:21;;;;;;;;;;;2.50;72.20;;;;;;5036713;23;20455;-73
2022/03/03 07:52:48;;;;;;;;;;;2.60;72.40;;;;;;4994100;28;19914;-73
2022/03/03 07:55:14;;;;;;;;;;;2.80;71.70;;;;;;4993427;28;20393;-73
2022/03/03 07:57:44;;;;;;;;;;;2.90;72.20;;;;;;5013297;28;19944;-73
2022/03/03 08:00:11;;;;;;;;;;;3.10;72.30;;;;;;4981007;28;19916;-72
2022/03/03 08:02:38;;;;;;;;;;;3.20;72.20;;;;;;5014198;28;19914;-73
2022/03/03 08:05:05;;;;;;;;;;;3.30;72.10;;;;;;5009708;28;19919;-73
2022/03/03 08:07:34;;;;;;;;;;;3.50;70.50;;;;;;5013789;28;19909;-73
2022/03/03 08:10:01;;;;;;;;;;;3.50;69.50;;;;;;5013488;28;19949;-73
2022/03/03 08:12:28;;;;;;;;;;;3.50;69.00;;;;;;5014119;28;20292;-73
2022/03/03 08:14:54;;;;;;;;;;;3.50;69.00;;;;;;4997005;28;19918;-73
2022/03/03 08:17:19;;;;;;;;;;;3.50;69.40;;;;;;5012307;28;20399;-73
2022/03/03 08:19:45;;;;;;;;;;;3.50;69.70;;;;;;5002943;28;20292;-73
2022/03/03 08:22:14;;;;;;;;;;;3.60;69.60;;;;;;4995819;28;19909;-74
2022/03/03 08:24:43;;;;;;;;;;;3.80;68.20;;;;;;5013213;28;19964;-72
2022/03/03 08:27:10;;;;;;;;;;;3.90;67.00;;;;;;5013501;28;19940;-73
2022/03/03 08:29:36;;;;;;;;;;;3.90;66.80;;;;;;4995717;28;19916;-73
2022/03/03 08:32:09;;;;;;;;;;;4.10;67.20;;;;;;4995987;28;19909;-73
2022/03/03 08:34:47;;;;;;;;;;;4.20;65.60;;;;;;4995182;28;19914;-73
2022/03/03 08:37:30;;;;;;;;;;;4.40;65.40;;;;;;5013305;28;19959;-73
2022/03/03 08:39:58;;;;;;;;;;;4.50;65.60;;;;;;5010761;28;19992;-73
2022/03/03 08:42:27;;;;;;;;;;;4.60;66.10;;;;;;4994932;28;20369;-73
2022/03/03 08:44:55;;;;;;;;;;;4.70;66.60;;;;;;4995274;28;19965;-73
2022/03/03 08:47:21;;;;;;;;;;;4.70;66.90;;;;;;4995270;28;19917;-73
2022/03/03 08:49:48;;;;;;;;;;;4.90;66.50;;;;;;4995486;28;19981;-73
2022/03/03 08:52:15;;;;;;;;;;;5.00;66.80;;;;;;4995674;28;20316;-73
2022/03/03 08:54:41;;;;;;;;;;;5.10;66.80;;;;;;5012666;28;19956;-73
2022/03/03 08:57:06;;;;;;;;;;;5.20;65.50;;;;;;4995405;28;19948;-74
2022/03/03 08:59:33;;;;;;;;;;;5.40;64.90;;;;;;4995602;28;20377;-76
2022/03/03 09:01:58;;;;;;;;;;;5.50;64.00;;;;;;5012904;28;20552;-74
2022/03/03 09:04:24;;;;;;;;;;;5.70;63.60;;;;;;5012502;28;20020;-74
2022/03/03 09:06:49;;;;;;;;;;;5.90;60.20;;;;;;5011832;28;20012;-74
2022/03/03 09:09:15;;;;;;;;;;;6.00;62.40;;;;;;5012827;28;19925;-74
2022/03/03 09:11:41;;;;;;;;;;;6.10;63.20;;;;;;4996269;28;19996;-74
2022/03/03 09:14:07;;;;;;;;;;;6.00;63.70;;;;;;5012176;28;19909;-74
2022/03/03 09:16:34;;;;;;;;;;;6.10;63.60;;;;;;4994922;28;19920;-75
2022/03/03 09:18:59;;;;;;;;;;;6.10;63.00;;;;;;5011705;28;19916;-74
2022/03/03 09:21:25;;;;;;;;;;;6.20;63.50;;;;;;4995653;28;19917;-74
2022/03/03 09:23:51;;;;;;;;;;;6.40;64.60;;;;;;4978043;28;19913;-74
2022/03/03 09:26:17;;;;;;;;;;;6.60;64.10;;;;;;5011535;28;19925;-74
2022/03/03 09:28:42;;;;;;;;;;;6.90;61.40;;;;;;5011452;28;19913;-74
2022/03/03 09:31:08;;;;;;;;;;;7.30;59.70;;;;;;5013971;28;19917;-75
2022/03/03 09:33:34;;;;;;;;;;;7.50;58.70;;;;;;4979860;28;20037;-73
2022/03/03 09:35:59;;;;;;;;;;;7.80;58.80;;;;;;4996455;28;20361;-75
2022/03/03 09:38:25;;;;;;;;;;;7.90;56.10;;;;;;5011541;28;20318;-74
2022/03/03 09:40:51;;;;;;;;;;;8.20;56.40;;;;;;5011485;28;20377;-74
2022/03/03 09:43:16;;;;;;;;;;;8.60;54.70;;;;;;5011508;28;19909;-76
2022/03/03 09:45:42;;;;;;;;;;;9.10;54.10;;;;;;4993617;28;19932;-75
2022/03/03 09:48:09;;;;;;;;;;;9.40;52.40;;;;;;4977710;28;19917;-73
2022/03/03 09:50:38;;;;;;;;;;;9.60;51.60;;;;;;5010999;28;20283;-73
2022/03/03 09:53:08;;;;;;;;;;;10.30;50.30;;;;;;4993963;28;19945;-74
2022/03/03 09:55:34;;;;;;;;;;;10.80;48.40;;;;;;5010976;28;19922;-73
2022/03/03 09:58:00;;;;;;;;;;;11.00;46.10;;;;;;4993690;28;19915;-73
2022/03/03 10:00:26;;;;;;;;;;;11.10;44.20;;;;;;5011102;28;19913;-73
2022/03/03 10:02:54;;;;;;;;;;;11.50;43.40;;;;;;5011536;28;20368;-73
2022/03/03 10:05:27;;;;;;;;;;;11.70;43.40;;;;;;5011090;28;19910;-74
2022/03/03 10:08:00;;;;;;;;;;;12.10;42.20;;;;;;5011366;28;19916;-73
2022/03/03 10:10:25;;;;;;;;;;;12.50;40.40;;;;;;4978193;28;19909;-73
2022/03/03 10:12:53;;;;;;;;;;;13.00;39.40;;;;;;5011449;28;20032;-73
2022/03/03 10:15:19;;;;;;;;;;;13.40;36.80;;;;;;5010667;28;19991;-73
2022/03/03 10:17:45;;;;;;;;;;;13.30;37.50;;;;;;5010893;28;20272;-73
2022/03/03 10:20:11;;;;;;;;;;;13.90;35.80;;;;;;5010649;28;19909;-73
2022/03/03 10:22:40;;;;;;;;;;;14.40;34.70;;;;;;5011026;28;19921;-73
2022/03/03 10:25:06;;;;;;;;;;;14.60;33.50;;;;;;5012278;28;19956;-73
2022/03/03 10:27:33;;;;;;;;;;;14.80;32.60;;;;;;5010696;28;19917;-73
2022/03/03 10:30:02;;;;;;;;;;;15.10;32.00;;;;;;4977370;28;19909;-73
2022/03/03 10:32:28;;;;;;;;;;;15.30;32.70;;;;;;5010574;28;19917;-73
2022/03/03 10:35:00;;;;;;;;;;;15.60;30.90;;;;;;4993515;28;19928;-73
2022/03/03 10:37:26;;;;;;;;;;;15.60;34.30;;;;;;4993299;28;19913;-73
2022/03/03 10:39:59;;;;;;;;;;;15.80;34.80;;;;;;4993647;28;19921;-73
2022/03/03 10:42:26;;;;;;;;;;;15.80;34.20;;;;;;4993354;28;19948;-73
2022/03/03 10:45:04;;;;;;;;;;;16.20;31.90;;;;;;4993300;28;20372;-73
2022/03/03 10:47:30;;;;;;;;;;;16.30;31.90;;;;;;5010252;28;20003;-73
2022/03/03 10:49:59;;;;;;;;;;;16.60;32.50;;;;;;4992919;28;20044;-73
2022/03/03 10:52:29;;;;;;;;;;;16.80;32.30;;;;;;4992966;28;19918;-73
2022/03/03 10:55:01;;;;;;;;;;;16.50;32.30;;;;;;4993198;28;19930;-73
2022/03/03 10:57:41;;;;;;;;;;;16.70;32.50;;;;;;5010007;28;19921;-73
2022/03/03 11:00:12;;;;;;;;;;;16.60;31.50;;;;;;5010740;28;19992;-73
2022/03/03 11:02:39;;;;;;;;;;;16.20;30.90;;;;;;4993413;28;19914;-72
2022/03/03 11:05:05;;;;;;;;;;;16.80;31.50;;;;;;4994012;28;19910;-73
2022/03/03 11:07:31;;;;;;;;;;;17.30;29.70;;;;;;5013693;28;19932;-72
2022/03/03 11:09:57;;;;;;;;;;;17.30;29.50;;;;;;5014201;28;19910;-72
2022/03/03 11:12:22;;;;;;;;;;;17.10;28.10;;;;;;5013492;28;19910;-73
2022/03/03 11:14:49;;;;;;;;;;;16.70;28.40;;;;;;4996546;28;19921;-72
2022/03/03 11:17:15;;;;;;;;;;;17.30;29.00;;;;;;4982945;28;19920;-72
2022/03/03 11:19:41;;;;;;;;;;;17.30;28.20;;;;;;5014504;28;19909;-72
2022/03/03 11:22:07;;;;;;;;;;;17.10;27.30;;;;;;5013026;28;19910;-72
2022/03/03 11:24:39;;;;;;;;;;;16.60;27.50;;;;;;5013578;28;19914;-72
2022/03/03 11:27:05;;;;;;;;;;;16.90;27.80;;;;;;5013020;28;19915;-72
2022/03/03 11:29:32;;;;;;;;;;;17.20;28.20;;;;;;4980301;28;19924;-72
2022/03/03 11:32:03;;;;;;;;;;;17.40;27.50;;;;;;5012266;28;19909;-73
2022/03/03 11:34:32;;;;;;;;;;;17.80;26.80;;;;;;5013253;28;20340;-72
2022/03/03 11:37:09;;;;;;;;;;;17.80;28.20;;;;;;4979689;28;19913;-72
2022/03/03 11:39:38;;;;;;;;;;;18.20;28.40;;;;;;5013619;28;19992;-72
2022/03/03 11:42:21;;;;;;;;;;;18.50;27.90;;;;;;5013006;28;19914;-72
2022/03/03 11:44:47;;;;;;;;;;;18.80;27.90;;;;;;5013585;28;19988;-73
2022/03/03 11:47:20;;;;;;;;;;;19.30;27.30;;;;;;4995673;28;19909;-72
2022/03/03 11:49:58;;;;;;;;;;;18.90;27.60;;;;;;5009135;28;19953;-72
2022/03/03 11:52:24;;;;;;;;;;;19.10;27.60;;;;;;5012698;28;19932;-72
2022/03/03 11:54:57;;;;;;;;;;;19.00;28.90;;;;;;4979400;28;19917;-72
2022/03/03 11:57:27;;;;;;;;;;;18.80;29.00;;;;;;5012704;28;19916;-72
2022/03/03 11:59:53;;;;;;;;;;;18.90;29.10;;;;;;5013587;28;19909;-72
2022/03/03 12:02:26;;;;;;;;;;;19.50;28.30;;;;;;5013111;28;19910;-72
2022/03/03 12:05:11;;;;;;;;;;;18.90;28.70;;;;;;4995498;28;20435;-72
2022/03/03 12:07:36;;;;;;;;;;;18.80;28.90;;;;;;5012888;28;19913;-72
2022/03/03 12:10:13;;;;;;;;;;;18.70;28.50;;;;;;5013414;28;20052;-72
2022/03/03 12:12:38;;;;;;;;;;;18.90;28.60;;;;;;4995855;28;19992;-72
2022/03/03 12:15:04;;;;;;;;;;;19.00;28.50;;;;;;4995620;28;20113;-72
2022/03/03 12:17:33;;;;;;;;;;;18.90;27.50;;;;;;4995533;28;19933;-72
2022/03/03 12:20:18;;;;;;;;;;;19.00;28.10;;;;;;5011786;28;20000;-72
2022/03/03 12:23:02;;;;;;;;;;;19.30;28.20;;;;;;4981731;28;20403;-72
2022/03/03 12:25:47;;;;;;;;;;;19.90;28.60;;;;;;5012695;28;19913;-72
2022/03/03 12:28:15;;;;;;;;;;;19.70;27.70;;;;;;5012611;28;19971;-72
2022/03/03 12:30:42;;;;;;;;;;;19.80;28.40;;;;;;5012772;28;19909;-72
2022/03/03 12:33:07;;;;;;;;;;;19.60;28.40;;;;;;5012109;28;20289;-72
2022/03/03 12:35:34;;;;;;;;;;;18.60;29.10;;;;;;4996453;28;19913;-72
2022/03/03 12:38:00;;;;;;;;;;;18.30;28.80;;;;;;4994942;28;19916;-72
2022/03/03 12:40:28;;;;;;;;;;;18.40;29.80;;;;;;5012455;28;19964;-72
2022/03/03 12:42:54;;;;;;;;;;;19.20;28.70;;;;;;4995120;28;19909;-72
2022/03/03 12:45:20;;;;;;;;;;;19.60;28.10;;;;;;5015917;28;20008;-72
2022/03/03 12:47:48;;;;;;;;;;;19.60;27.10;;;;;;5012250;28;19917;-72
2022/03/03 12:50:14;;;;;;;;;;;19.00;27.20;;;;;;5012359;28;19932;-72
2022/03/03 12:52:41;;;;;;;;;;;18.80;28.00;;;;;;5013067;28;19909;-72
2022/03/03 12:55:08;;;;;;;;;;;18.90;28.00;;;;;;5011839;28;19922;-72
2022/03/03 12:57:35;;;;;;;;;;;18.70;27.60;;;;;;4977805;28;20543;-72
2022/03/03 13:00:05;;;;;;;;;;;18.70;27.60;;;;;;5012503;28;19949;-76
2022/03/03 13:02:46;;;;;;;;;;;19.00;27.20;;;;;;5012687;28;19917;-73
2022/03/03 13:05:12;;;;;;;;;;;19.30;27.20;;;;;;4990015;28;19910;-73
2022/03/03 13:07:39;;;;;;;;;;;19.30;26.80;;;;;;5012389;28;20284;-73
2022/03/03 13:10:05;;;;;;;;;;;19.20;26.30;;;;;;5012008;28;19995;-73
2022/03/03 13:12:44;;;;;;;;;;;18.80;27.00;;;;;;5012413;28;19957;-73
2022/03/03 13:15:09;;;;;;;;;;;18.50;26.70;;;;;;4998411;28;19921;-73
2022/03/03 13:17:35;;;;;;;;;;;17.80;26.90;;;;;;5011898;28;19910;-73
2022/03/03 13:20:04;;;;;;;;;;;17.10;28.10;;;;;;5011275;28;19909;-73
2022/03/03 13:22:34;;;;;;;;;;;16.90;29.50;;;;;;5012037;28;19960;-73
2022/03/03 13:25:19;;;;;;;;;;;16.70;29.80;;;;;;4994383;28;19916;-72
2022/03/03 13:27:45;;;;;;;;;;;16.60;30.00;;;;;;4991618;28;19909;-74
2022/03/03 13:30:11;;;;;;;;;;;16.50;29.90;;;;;;4994139;28;19959;-74
2022/03/03 13:32:44;;;;;;;;;;;16.20;30.00;;;;;;5011527;28;19989;-74
2022/03/03 13:35:10;;;;;;;;;;;15.60;30.70;;;;;;5011019;28;19913;-74
2022/03/03 13:37:35;;;;;;;;;;;14.80;31.80;;;;;;5012198;28;19916;-76
2022/03/03 13:40:31;;;;;;;;;;;14.60;32.90;;;;;;4996748;28;20322;-73
2022/03/03 13:42:57;;;;;;;;;;;14.60;32.00;;;;;;5003919;28;20404;-74
2022/03/03 13:45:27;;;;;;;;;;;14.30;31.90;;;;;;5011100;28;19933;-74
2022/03/03 13:48:00;;;;;;;;;;;14.40;33.50;;;;;;4993756;28;19913;-74
2022/03/03 13:50:25;;;;;;;;;;;14.50;31.90;;;;;;4977153;28;19917;-74
2022/03/03 13:52:51;;;;;;;;;;;13.90;31.40;;;;;;4994016;28;19910;-74
2022/03/03 13:55:18;;;;;;;;;;;13.90;33.50;;;;;;4995583;28;19918;-74
2022/03/03 13:57:46;;;;;;;;;;;14.00;32.90;;;;;;5011468;28;19909;-74
2022/03/03 14:00:20;;;;;;;;;;;13.80;33.30;;;;;;5010914;28;19916;-71
2022/03/03 14:02:52;;;;;;;;;;;13.30;34.40;;;;;;4993534;28;19914;-73
2022/03/03 14:05:18;;;;;;;;;;;13.50;34.80;;;;;;5010827;28;20416;-73
2022/03/03 14:07:53;;;;;;;;;;;13.60;34.10;;;;;;4993573;28;19909;-73
2022/03/03 14:10:19;;;;;;;;;;;13.10;35.20;;;;;;4997873;28;19909;-73
2022/03/03 14:13:04;;;;;;;;;;;13.00;35.90;;;;;;5009991;28;19952;-72
2022/03/03 14:15:31;;;;;;;;;;;12.90;36.10;;;;;;4989484;28;19914;-72
2022/03/03 14:17:56;;;;;;;;;;;13.20;36.10;;;;;;5010880;28;20285;-72
2022/03/03 14:20:22;;;;;;;;;;;13.20;36.00;;;;;;5013404;28;19909;-72
2022/03/03 14:22:55;;;;;;;;;;;12.80;36.30;;;;;;5017317;28;19944;-72
2022/03/03 14:25:21;;;;;;;;;;;12.70;36.80;;;;;;5011084;28;20348;-72
2022/03/03 14:27:47;;;;;;;;;;;12.30;37.20;;;;;;5010936;28;19910;-72